Tiempo atmosférico en la estación meteorológica de Bossòst, Lleida (725 m.)



Fecha
DESCASC
Temp. máxima en grados centígrados (hora)
DESCASC
Temp. mínima en grados centígrados (hora)
DESCASC
Temp. media en grados centígrados
DESCASC
Racha de viento máxima en m/sg (hora)
DESCASC
Velocidad máxima media en intervalos de 10 minutos(hora)
DESCASC
Precipitaciones diarias en mm
DESCASC
Precipitaciones de 00:00 a 06:00 en mm
DESCASC
Precipitaciones de 06:00 a 12:00 en mm
DESCASC
Precipitaciones de 12:00 a 18:00 en mm
DESCASC
Precipitaciones de 18:00 a 24:00 en mm
DESCASC
13-10-2019 25.5 (12:30) 13.1 (03:30) 19.3 9.17 (15:50) 5 (00:20) 0 0 0 0 0
12-10-2019 26.9 (15:20) 9.8 (00:20) 18.3 8.89 (08:00) 5.56 (07:50) 0 0 0 0 0
11-10-2019 26.9 (15:20) 4.4 (06:20) 15.6 4.44 (07:10) 2.22 (19:40) 0 0 0 0 0
10-10-2019 18.5 (15:40) 6.9 (00:00) 12.7 5 (16:50) 2.78 (09:20) 0 0 0 0 0
09-10-2019 15.4 (14:30) 10.4 (00:00) 12.9 6.67 (12:50) 2.78 (14:30) 0 0 0 0 0
08-10-2019 25.4 (14:10) 10.8 (00:00) 18.1 7.78 (15:30) 3.06 (15:30) 0 0 0 0 0
07-10-2019 18.3 (15:30) 4 (00:00) 11.1 5.83 (15:10) 2.5 (15:10) 0 0 0 0 0
06-10-2019 18 (16:30) 8.7 (00:00) 13.3 7.22 (07:50) 4.44 (07:50) 0 0 0 0 0
05-10-2019 19.5 (15:50) 8.9 (00:00) 14.2 6.94 (16:10) 3.06 (15:10) 0 0 0 0 0
04-10-2019 21.8 (14:10) 4.4 (00:00) 13.1 8.61 (02:50) 5.56 (02:50) 0 0 0 0 0
03-10-2019 18.9 (16:30) 6.7 (00:00) 12.8 6.39 (17:40) 4.17 (23:30) 0.2 0 0 0.2 0
02-10-2019 15.3 (14:00) 11 (00:00) 13.2 8.06 (15:40) 3.61 (15:30) 3.6 0.2 3.2 0.2 0
01-10-2019 24.2 (13:40) 8 (00:00) 16.1 10.28 (13:40) 4.44 (13:40) 4.2 0 0 0 4.2
30-09-2019 23.7 (16:20) 8.1 (00:00) 15.9 6.11 (16:00) 3.33 (15:40) 0 0 0 0 0
29-09-2019 27.2 (15:30) 7.7 (00:00) 17.5 6.39 (16:00) 3.06 (16:10) 0 0 0 0 0
28-09-2019 20.6 (14:00) 10.3 (00:00) 15.5 7.78 (15:00) 2.78 (15:00) 0 0 0 0 0
27-09-2019 22.4 (14:50) 9.5 (00:00) 15.9 7.78 (16:20) 3.61 (16:50) 0 0 0 0 0
26-09-2019 23.1 (15:00) 11.6 (00:00) 17.4 7.22 (16:20) 3.33 (07:10) 0 0 0 0 0
25-09-2019 19.3 (14:40) 12.5 (00:00) 15.9 6.67 (15:40) 2.5 (14:30) 0 0 0 0 0
24-09-2019 24.4 (14:40) 9.2 (00:00) 16.8 6.67 (16:00) 3.33 (03:10) 0 0 0 0 0
23-09-2019 21.1 (16:00) 8 (00:00) 14.6 6.11 (21:30) 3.33 (21:20) 0 0 0 0 0
22-09-2019 19.9 (12:20) 13.1 (00:00) 16.5 8.89 (12:40) 5 (05:30) 2.6 0 0 2.2 0.4
21-09-2019 25.4 (16:10) 14.2 (00:00) 19.8 8.61 (18:20) 5.28 (17:00) 0 0 0 0 0
20-09-2019 27.9 (15:30) 10.4 (00:00) 19.1 7.5 (14:40) 4.44 (18:30) 0.2 0 0 0.2 0
19-09-2019 23.8 (15:10) 10.5 (00:00) 17.1 6.67 (15:40) 3.61 (23:59) 2.8 0 0 0 2.8
18-09-2019 23.7 (14:10) 12.7 (00:00) 18.2 10.83 (18:10) 6.67 (18:20) 4.4 1.4 0 0 3
17-09-2019 26.2 (14:20) 13 (00:00) 19.6 8.61 (19:30) 6.67 (19:30) 1.6 0 0 0 1.6
16-09-2019 26.6 (15:00) 11.9 (00:00) 19.3 6.67 (22:00) 3.06 (22:10) 4.2 0 0 0 4.2

Gráficas

Temp. máximas Temp. mínimas Temp. medias Precipitaciones Rachas de viento máximas Velocidades máximas media en intervalos de 10 minutos

Datos horarios

Fecha y hora oficial Temperatura (ºC) Velocidad del viento (km/h) Dirección del viento Racha (km/h) Dirección de racha Precipitación (mm) Presión (hPa) Tendencia (hPa) Humedad (%)
2019-10-15 23:00:00 6 2 Sur 5 Sudoeste 0 -- -- 96
2019-10-15 22:00:00 7 3 Oeste 12 Sudoeste 0 -- -- 94
2019-10-15 21:00:00 7.7 6 Sudoeste 14 Sudoeste 0 -- -- 93
2019-10-15 20:00:00 9 3 Sudoeste 9 Sudoeste 0 -- -- 88
2019-10-15 19:00:00 11.2 0 Calma 3 Sudoeste 0 -- -- 86
2019-10-15 18:00:00 11.8 3 Sudoeste 12 Norte 0 -- -- 80
2019-10-15 17:00:00 14.5 4 Sudoeste 17 Norte 0 -- -- 65
2019-10-15 16:00:00 14.2 10 Nordeste 19 Norte 0 -- -- 59
2019-10-15 15:00:00 13.8 10 Norte 19 Norte 0 -- -- 60
2019-10-15 14:00:00 13.4 8 Norte 22 Norte 0 -- -- 60
2019-10-15 13:00:00 12.7 6 Norte 13 Norte 0 -- -- 67
2019-10-15 12:00:00 10.4 3 Norte 10 Norte 0 -- -- 78
2019-10-15 11:00:00 7 0 Calma 8 Este 0 -- -- 97
2019-10-15 10:00:00 6.6 3 Oeste 6 Nordeste 0 -- -- 98
2019-10-15 09:00:00 6.6 0 Calma 7 Sudeste 0 -- -- 96
2019-10-15 08:00:00 6.8 2 Nordeste 8 Oeste 0.2 -- -- 96
2019-10-15 07:00:00 7.6 4 Nordeste 21 Norte 0.2 -- -- 87
2019-10-15 06:00:00 8.4 8 Norte 22 Norte 0.2 -- -- 86
2019-10-15 05:00:00 9.5 5 Nordeste 13 Este 0 -- -- 92
2019-10-15 04:00:00 9.9 2 Nordeste 12 Sur 0.2 -- -- 94
2019-10-15 03:00:00 10.6 2 Nordeste 13 Nordeste 1 -- -- 95
2019-10-15 02:00:00 11.2 3 Norte 10 Nordeste 0.2 -- -- 96
2019-10-15 01:00:00 11 6 Sur 11 Sudeste 0 -- -- 97
2019-10-15 00:00:00 11.9 6 Nordeste 22 Sudoeste 0 -- -- 94
2019-10-14 23:00:00 11.7 4 Sur 10 Sudoeste 0 -- -- 96
2019-10-14 22:00:00 12.8 4 Este 14 Sur 0.4 -- -- 91
2019-10-14 21:00:00 13.4 8 Sudoeste 19 Sur 1.2 -- -- 95
2019-10-14 20:00:00 14.4 2 Nordeste 10 Sur 0 -- -- 87
2019-10-14 19:00:00 15.3 2 Sudeste 15 Nordeste 0 -- -- 82
2019-10-14 18:00:00 17.8 12 Nordeste 60 Sudoeste 0 -- -- 64
2019-10-14 17:00:00 14.6 26 Oeste 47 Sudoeste 2.6 -- -- 81
2019-10-14 16:00:00 14.4 17 Sudoeste 51 Oeste 3 -- -- 89
2019-10-14 15:00:00 15.8 10 Sur 37 Sudoeste 0.8 -- -- 83
2019-10-14 14:00:00 21.2 14 Sudoeste 37 Oeste 0 -- -- 51
2019-10-14 13:00:00 21 13 Oeste 50 Sudoeste 0 -- -- 54
2019-10-14 12:00:00 23.9 7 Oeste 26 Sudoeste 0 -- -- 40
2019-10-14 11:00:00 21.9 14 Oeste 44 Sur 0 -- -- 47
2019-10-14 10:00:00 22 13 Sudoeste 37 Sudoeste 0 -- -- 37
2019-10-14 09:00:00 19.6 14 Sudoeste 31 Sur 0 -- -- 43
2019-10-14 08:00:00 15.4 10 Sudoeste 29 Sudoeste 0 -- -- 57
2019-10-14 07:00:00 12.1 2 Nordeste 8 Oeste 0 -- -- 78
2019-10-14 06:00:00 12.7 3 Sur 8 Sur 0 -- -- 75
2019-10-14 05:00:00 14.6 3 Sur 9 Oeste 0 -- -- 68
2019-10-14 04:00:00 18.7 4 Sur 35 Oeste 0 -- -- 56
2019-10-14 03:00:00 18.7 11 Sudoeste 23 Sudoeste 0 -- -- 53
2019-10-14 02:00:00 20.7 10 Sudoeste 31 Oeste 0 -- -- 48
2019-10-14 01:00:00 15.5 3 Sudoeste 9 Sur 0 -- -- 71
2019-10-14 00:00:00 16 0 Calma 15 Sudoeste 0 -- -- 70
2019-10-13 23:00:00 17.3 5 Sudoeste 18 Sudoeste 0 -- -- 66
2019-10-13 22:00:00 17.3 14 Sudoeste 22 Sudoeste 0 -- -- 61
2019-10-13 21:00:00 16.3 11 Sudoeste 22 Sudoeste 0 -- -- 67
2019-10-13 20:00:00 17.7 14 Sudoeste 22 Sudoeste 0 -- -- 62
2019-10-13 19:00:00 19.1 5 Sur 14 Sudoeste 0 -- -- 60
2019-10-13 18:00:00 22.2 6 Sudoeste 23 Sudoeste 0 -- -- 54
2019-10-13 17:00:00 24 9 Sudoeste 27 Sudoeste 0 -- -- 43
2019-10-13 16:00:00 24.7 15 Sudoeste 33 Oeste 0 -- -- 42
2019-10-13 15:00:00 23.6 14 Sudoeste 31 Sudoeste 0 -- -- 44
2019-10-13 14:00:00 24.5 13 Sudoeste 32 Sudoeste 0 -- -- 44
2019-10-13 13:00:00 23.9 10 Oeste 24 Oeste 0 -- -- 44
2019-10-13 12:00:00 24.3 10 Sudoeste 25 Sudoeste 0 -- -- 42
2019-10-13 11:00:00 18.9 4 Sudeste 19 Sur 0 -- -- 66
2019-10-13 10:00:00 18.5 13 Sudoeste 27 Sudoeste 0 -- -- 59
2019-10-13 09:00:00 16.1 7 Sudoeste 19 Sudoeste 0 -- -- 70
2019-10-13 08:00:00 14.9 8 Sudoeste 19 Sudoeste 0 -- -- 75
2019-10-13 07:00:00 14.9 10 Sur 19 Sur 0 -- -- 74
2019-10-13 06:00:00 14.6 10 Sudoeste 18 Sudoeste 0 -- -- 75
2019-10-13 05:00:00 15.1 10 Sudoeste 20 Sudoeste 0 -- -- 71
2019-10-13 04:00:00 13.3 5 Sudoeste 10 Sur 0 -- -- 79
2019-10-13 03:00:00 13.5 2 Nordeste 11 Sudoeste 0 -- -- 80
2019-10-13 02:00:00 14.1 2 Sur 6 Oeste 0 -- -- 77
2019-10-13 01:00:00 16.9 2 Norte 31 Sudoeste 0 -- -- 66
2019-10-13 00:00:00 15.7 15 Sudoeste 23 Sudoeste 0 -- -- 73
2019-10-12 23:00:00 15.5 3 Este 15 Sur 0 -- -- 77
2019-10-12 22:00:00 17.3 6 Sur 19 Sudoeste 0 -- -- 70
2019-10-12 21:00:00 17.6 9 Sudoeste 17 Sudoeste 0 -- -- 71
2019-10-12 20:00:00 19.6 10 Sudoeste 18 Sur 0 -- -- 64
2019-10-12 19:00:00 20.4 2 Sudoeste 12 Sudoeste 0 -- -- 67
2019-10-12 18:00:00 22.7 7 Sur 20 Sudoeste 0 -- -- 57
2019-10-12 17:00:00 25.8 10 Sudoeste 22 Sudoeste 0 -- -- 41
2019-10-12 16:00:00 26.8 9 Sudoeste 21 Sudoeste 0 -- -- 43
2019-10-12 15:00:00 26.3 10 Sudoeste 26 Sudoeste 0 -- -- 55
2019-10-12 14:00:00 24.3 6 Sudoeste 13 Sudoeste 0 -- -- 57
2019-10-12 13:00:00 22.1 2 Norte 18 Sudoeste 0 -- -- 68
2019-10-12 12:00:00 21.1 10 Sur 18 Sur 0 -- -- 54
2019-10-12 11:00:00 15.9 3 Sur 8 Sudoeste 0 -- -- 83
2019-10-12 10:00:00 15.5 2 Sudoeste 5 Sudoeste 0 -- -- 81
2019-10-12 09:00:00 17.2 2 Sur 31 Sur 0 -- -- 69
2019-10-12 08:00:00 19.3 19 Sudoeste 32 Sudoeste 0 -- -- 56
2019-10-12 07:00:00 19.8 11 Sudoeste 21 Sudoeste 0 -- -- 52
2019-10-12 06:00:00 17.7 15 Sur 24 Sur 0 -- -- 64
2019-10-12 05:00:00 17.7 11 Sudoeste 19 Sudoeste 0 -- -- 66
2019-10-12 04:00:00 16.6 15 Sudoeste 21 Sudoeste 0 -- -- 72
2019-10-12 03:00:00 16.9 14 Sudoeste 23 Sudoeste 0 -- -- 69
2019-10-12 02:00:00 16.8 14 Sudoeste 28 Sudoeste 0 -- -- 68
2019-10-12 01:00:00 13.4 13 Sudoeste 22 Sudoeste 0 -- -- 81
2019-10-12 00:00:00 9.9 2 Sudoeste 5 Oeste 0 -- -- 95
2019-10-11 23:00:00 10.5 2 Sur 7 Sudoeste 0 -- -- 93
2019-10-11 22:00:00 12 3 Este 11 Sudoeste 0 -- -- 88
2019-10-11 21:00:00 13.2 2 Sudoeste 11 Sudoeste 0 -- -- 83
2019-10-11 20:00:00 15.1 4 Sur 15 Sudoeste 0 -- -- 77
2019-10-11 19:00:00 16.4 4 Sudoeste 10 Sudoeste 0 -- -- 72
2019-10-11 18:00:00 20.5 0 Calma 8 Sudoeste 0 -- -- 61
2019-10-11 17:00:00 25.9 3 Noroeste 12 Norte 0 -- -- 43
2019-10-11 16:00:00 26.6 4 Norte 10 Nordeste 0 -- -- 36
2019-10-11 15:00:00 26.3 2 Nordeste 6 Norte 0 -- -- 37
2019-10-11 14:00:00 23.5 3 Nordeste 5 Nordeste 0 -- -- 47
2019-10-11 13:00:00 19.4 0 Calma 4 Sur 0 -- -- 58
2019-10-11 12:00:00 14.9 0 Calma 4 Sur 0 -- -- 71
2019-10-11 11:00:00 6.4 0 Calma 5 Sudoeste 0 -- -- 100
2019-10-11 10:00:00 5.6 0 Calma 5 Sur 0 -- -- 96
2019-10-11 09:00:00 5.9 3 Sudoeste 13 Sudoeste 0 -- -- 95
2019-10-11 08:00:00 5.3 0 Calma 16 Sudoeste 0 -- -- 97
2019-10-11 07:00:00 4.8 3 Sur 10 Sudoeste 0 -- -- 100
2019-10-11 06:00:00 4.6 0 Calma 4 Sudoeste 0 -- -- 99
2019-10-11 05:00:00 4.9 0 Calma 5 Sudoeste 0 -- -- 99
2019-10-11 04:00:00 5.4 0 Calma 4 Sudoeste 0 -- -- 98
2019-10-11 03:00:00 6.2 0 Calma 5 Sudoeste 0 -- -- 97
2019-10-11 02:00:00 7.6 4 Este 10 Sur 0 -- -- 97
2019-10-11 01:00:00 6.7 3 Sudoeste 9 Sudoeste 0 -- -- 98
2019-10-11 00:00:00 6.9 0 Calma 4 Sur 0 -- -- 97
2019-10-10 23:00:00 7.8 2 Sudoeste 6 Sur 0 -- -- 95
2019-10-10 22:00:00 9 4 Sudoeste 13 Sudoeste 0 -- -- 92
2019-10-10 21:00:00 9.7 8 Sudoeste 16 Sudoeste 0 -- -- 92
2019-10-10 20:00:00 10.7 0 Calma 7 Sudoeste 0 -- -- 88
2019-10-10 19:00:00 12.9 0 Calma 5 Sudoeste 0 -- -- 82
2019-10-10 18:00:00 16.1 0 Calma 16 Norte 0 -- -- 69
2019-10-10 17:00:00 18.1 6 Norte 18 Norte 0 -- -- 56
2019-10-10 16:00:00 18.4 8 Norte 17 Norte 0 -- -- 52
2019-10-10 15:00:00 18.4 6 Nordeste 14 Norte 0 -- -- 52
2019-10-10 14:00:00 17.7 3 Nordeste 16 Sudoeste 0 -- -- 56
2019-10-10 13:00:00 16.7 10 Sudoeste 17 Sudoeste 0 -- -- 61
2019-10-10 12:00:00 13.5 3 Sudoeste 7 Sur 0 -- -- 72
2019-10-10 11:00:00 11.7 0 Calma 9 Nordeste 0 -- -- 87
2019-10-10 10:00:00 11.2 5 Norte 17 Sudoeste 0 -- -- 92
2019-10-10 09:00:00 10.5 3 Sudoeste 6 Sudoeste 0 -- -- 96
2019-10-10 08:00:00 10.4 0 Calma 4 Sur 0 -- -- 95
2019-10-10 07:00:00 10.4 0 Calma 4 Nordeste 0 -- -- 95
2019-10-10 06:00:00 10.3 2 Sudoeste 6 Nordeste 0 -- -- 95
2019-10-10 05:00:00 10.5 0 Calma 3 Sudoeste 0 -- -- 95
2019-10-10 04:00:00 10.6 0 Calma 8 Norte 0 -- -- 95
2019-10-10 03:00:00 10.8 2 Norte 5 Nordeste 0 -- -- 93
2019-10-10 02:00:00 10.7 0 Calma 2 Sur 0 -- -- 92
2019-10-10 01:00:00 10.8 0 Calma 2 Sudoeste 0 -- -- 91
2019-10-10 00:00:00 11 2 Sur 3 Sur 0 -- -- 90
2019-10-09 23:00:00 11.3 0 Calma 5 Sudoeste 0 -- -- 87
2019-10-09 22:00:00 11.5 3 Nordeste 15 Este 0 -- -- 86
2019-10-09 21:00:00 12 5 Norte 17 Norte 0 -- -- 84
2019-10-09 20:00:00 12.5 5 Nordeste 17 Norte 0 -- -- 85
2019-10-09 19:00:00 13.2 5 Norte 18 Norte 0 -- -- 82
2019-10-09 18:00:00 14 9 Norte 21 Norte 0 -- -- 78
2019-10-09 17:00:00 14.4 7 Norte 22 Norte 0 -- -- 76
2019-10-09 16:00:00 14.6 9 Norte 23 Norte 0 -- -- 76
2019-10-09 15:00:00 14.8 10 Norte 23 Norte 0 -- -- 79
2019-10-09 14:00:00 15 7 Norte 24 Norte 0 -- -- 78
2019-10-09 13:00:00 14.5 6 Norte 24 Norte 0 -- -- 81
2019-10-09 12:00:00 13.6 3 Nordeste 9 Nordeste 0 -- -- 86
2019-10-09 11:00:00 13.2 2 Noroeste 8 Norte 0 -- -- 88
2019-10-09 10:00:00 12.4 0 Calma 9 Norte 0 -- -- 90
2019-10-09 09:00:00 12.3 3 Nordeste 8 Norte 0 -- -- 94
2019-10-09 08:00:00 11.6 2 Sur 6 Nordeste 0 -- -- 97
2019-10-09 07:00:00 10.5 4 Sur 10 Sudoeste 0 -- -- 97
2019-10-09 06:00:00 10.9 3 Sur 12 Sudoeste 0 -- -- 94
2019-10-09 05:00:00 11.6 0 Calma 8 Sudoeste 0 -- -- 94
2019-10-09 04:00:00 12.2 5 Sudoeste 8 Sudoeste 0 -- -- 93
2019-10-09 03:00:00 11.8 3 Sudoeste 6 Sudoeste 0 -- -- 97
2019-10-09 02:00:00 10.9 0 Calma 4 Sudoeste 0 -- -- 97
2019-10-09 01:00:00 11.4 0 Calma 3 Sudoeste 0 -- -- 93
2019-10-09 00:00:00 12.7 0 Calma 3 Sudoeste 0 -- -- 90
2019-10-08 23:00:00 14.5 0 Calma 4 Sudoeste 0 -- -- 87
2019-10-08 22:00:00 16.7 0 Calma 4 Sudoeste 0 -- -- 85
2019-10-08 21:00:00 18 0 Calma 4 Nordeste 0 -- -- 83
2019-10-08 20:00:00 19.1 0 Calma 5 Sudoeste 0 -- -- 78
2019-10-08 19:00:00 20.6 0 Calma 9 Sudoeste 0 -- -- 72
2019-10-08 18:00:00 22.5 2 Norte 20 Norte 0 -- -- 65
2019-10-08 17:00:00 24.4 9 Norte 25 Norte 0 -- -- 57
2019-10-08 16:00:00 25.2 8 Norte 28 Norte 0 -- -- 54
2019-10-08 15:00:00 25.4 10 Norte 23 Norte 0 -- -- 55
2019-10-08 14:00:00 25 4 Nordeste 12 Nordeste 0 -- -- 61
2019-10-08 13:00:00 22.9 4 Este 8 Nordeste 0 -- -- 62
2019-10-08 12:00:00 19 3 Este 5 Nordeste 0 -- -- 79
2019-10-08 11:00:00 12 0 Calma 4 Sur 0 -- -- 100
2019-10-08 10:00:00 11.1 0 Calma 9 Sudoeste 0 -- -- 97
2019-10-08 09:00:00 11.1 2 Sur 7 Sudoeste 0 -- -- 97
2019-10-08 08:00:00 11.7 2 Sur 6 Sudoeste 0 -- -- 94
2019-10-08 07:00:00 12.6 4 Sudoeste 7 Sur 0 -- -- 91
2019-10-08 06:00:00 12.8 3 Sudoeste 7 Norte 0 -- -- 89
2019-10-08 05:00:00 12.5 0 Calma 6 Sudoeste 0 -- -- 90
2019-10-08 04:00:00 12.6 0 Calma 8 Sudoeste -- -- -- 87
2019-10-08 03:00:00 12.4 2 Sur 6 Sudoeste 0 -- -- 88
2019-10-08 02:00:00 13.1 3 Sudeste 12 Sudoeste 0 -- -- 81
2019-10-08 01:00:00 13 7 Sur 10 Sudoeste 0 -- -- 81
2019-10-08 00:00:00 13.1 2 Sur 9 Sudoeste 0 -- -- 82
2019-10-07 23:00:00 13.2 4 Sur 8 Sudoeste 0 -- -- 82
2019-10-07 22:00:00 -- 3 Sur 9 Sudoeste 0 -- -- --
2019-10-07 21:00:00 13.3 0 Calma 4 Sudoeste 0 -- -- 82
2019-10-07 20:00:00 14.2 0 Calma 4 Sur 0 -- -- 77
2019-10-07 19:00:00 15.7 3 Nordeste 10 Nordeste 0 -- -- 65
2019-10-07 18:00:00 16.7 5 Norte 17 Norte 0 -- -- 61
2019-10-07 17:00:00 17.8 6 Norte 20 Norte 0 -- -- 54
2019-10-07 16:00:00 18.3 7 Norte 21 Nordeste 0 -- -- 48
2019-10-07 15:00:00 18.1 7 Norte 19 Nordeste 0 -- -- 45
2019-10-07 14:00:00 17.7 8 Norte 17 Nordeste 0 -- -- 40
2019-10-07 13:00:00 16.9 4 Nordeste 13 Norte 0 -- -- 44
2019-10-07 12:00:00 14.1 5 Nordeste 10 Norte 0 -- -- 60
2019-10-07 11:00:00 6.8 0 Calma 6 Nordeste 0 -- -- 100
2019-10-07 10:00:00 5.4 0 Calma 7 Sudoeste 0 -- -- 98
2019-10-07 09:00:00 4.8 0 Calma 13 Oeste 0 -- -- 100
2019-10-07 08:00:00 4 4 Sudoeste 7 Oeste 0 -- -- 99
2019-10-07 07:00:00 4.3 3 Sudoeste 5 Sudoeste 0 -- -- 98
2019-10-07 06:00:00 5 3 Oeste 6 Oeste 0 -- -- 97
2019-10-07 05:00:00 5.6 0 Calma 6 Sudoeste 0 -- -- 97
2019-10-07 04:00:00 6.5 0 Calma 4 Sur -- -- -- 97
2019-10-07 03:00:00 7.5 0 Calma 4 Oeste 0 -- -- 95
2019-10-07 02:00:00 9.4 0 Calma 8 Sur 0 -- -- 89
2019-10-07 01:00:00 11.5 2 Nordeste 17 Norte 0 -- -- 83
2019-10-07 00:00:00 12.5 7 Norte 21 Nordeste 0 -- -- 80
2019-10-06 23:00:00 12.9 4 Norte 20 Norte 0 -- -- 77
2019-10-06 22:00:00 13.6 7 Norte 20 Norte 0 -- -- 76
2019-10-06 21:00:00 13.5 6 Norte 15 Norte 0 -- -- 80
2019-10-06 20:00:00 13.6 3 Norte 10 Nordeste 0 -- -- 87
2019-10-06 19:00:00 14.1 4 Nordeste 17 Norte 0 -- -- 88
2019-10-06 18:00:00 15.7 7 Norte 22 Norte 0 -- -- 77
2019-10-06 17:00:00 17.2 7 Norte 21 Norte 0 -- -- 68
2019-10-06 16:00:00 17.5 3 Nordeste 16 Norte 0 -- -- 64
2019-10-06 15:00:00 17.4 10 Norte 25 Nordeste 0 -- -- 61
2019-10-06 14:00:00 17 10 Norte 24 Norte 0 -- -- 64
2019-10-06 13:00:00 16 9 Norte 22 Norte 0 -- -- 72
2019-10-06 12:00:00 15.6 3 Nordeste 14 Sudoeste 0 -- -- 69
2019-10-06 11:00:00 13.6 3 Sudeste 16 Sudoeste 0 -- -- 79
2019-10-06 10:00:00 11.8 2 Nordeste 17 Sudoeste 0 -- -- 84
2019-10-06 09:00:00 10.2 8 Sudoeste 16 Sudoeste 0 -- -- 92
2019-10-06 08:00:00 10.1 10 Sudoeste 26 Sudoeste 0 -- -- 88
2019-10-06 07:00:00 9.8 12 Sudoeste 21 Sudoeste 0 -- -- 93
2019-10-06 06:00:00 9.3 3 Nordeste 10 Oeste 0 -- -- 96
2019-10-06 05:00:00 9.1 8 Sudoeste 17 Sudoeste 0 -- -- 95
2019-10-06 04:00:00 10.1 4 Sudoeste 22 Sudoeste 0 -- -- 93
2019-10-06 03:00:00 10.9 10 Sudoeste 17 Sudoeste 0 -- -- 93
2019-10-06 02:00:00 10.4 0 Calma 8 Oeste 0 -- -- 98
2019-10-06 01:00:00 10 4 Sudoeste 6 Sudoeste 0 -- -- 99
2019-10-06 00:00:00 9.2 5 Sudoeste 9 Sudoeste 0 -- -- 99
2019-10-05 23:00:00 9.7 2 Sudoeste 4 Sudoeste 0 -- -- 96
2019-10-05 22:00:00 11.1 3 Sudoeste 12 Sudoeste 0 -- -- 96
2019-10-05 21:00:00 11.4 3 Sudoeste 9 Sudoeste 0 -- -- 95
2019-10-05 20:00:00 12.5 0 Calma 4 Sudoeste 0 -- -- 92
2019-10-05 19:00:00 14.6 0 Calma 4 Sudoeste 0 -- -- 86
2019-10-05 18:00:00 17.4 3 Norte 16 Norte 0 -- -- 74
2019-10-05 17:00:00 18.9 9 Norte 25 Norte 0 -- -- 66
2019-10-05 16:00:00 19.5 7 Norte 22 Norte 0 -- -- 63
2019-10-05 15:00:00 19.3 8 Nordeste 17 Norte 0 -- -- 65
2019-10-05 14:00:00 18.2 8 Norte 19 Norte 0 -- -- 69
2019-10-05 13:00:00 17.8 5 Norte 10 Norte 0 -- -- 71
2019-10-05 12:00:00 16.2 3 Norte 11 Norte 0 -- -- 74
2019-10-05 11:00:00 11.6 0 Calma 4 Este 0 -- -- 100
2019-10-05 10:00:00 10.7 0 Calma 7 Sur 0 -- -- 97
2019-10-05 09:00:00 11.2 4 Sudoeste 11 Sudoeste 0 -- -- 97
2019-10-05 08:00:00 11.2 2 Sudoeste 6 Sudoeste 0 -- -- 98
2019-10-05 07:00:00 11.1 0 Calma 4 Nordeste 0 -- -- 98
2019-10-05 06:00:00 11 0 Calma 3 Nordeste 0 -- -- 98
2019-10-05 05:00:00 10.4 2 Nordeste 11 Sudoeste 0 -- -- 99
2019-10-05 04:00:00 10.6 5 Sur 10 Sudeste 0 -- -- 95
2019-10-05 03:00:00 11.6 6 Oeste 22 Sudoeste 0 -- -- 93
2019-10-05 02:00:00 12.4 0 Calma 5 Sudeste 0 -- -- 93
2019-10-05 01:00:00 13.2 4 Nordeste 17 Norte 0 -- -- 89
2019-10-05 00:00:00 13.6 5 Nordeste 17 Norte 0 -- -- 88
2019-10-04 23:00:00 13.8 4 Norte 16 Nordeste 0 -- -- 92
2019-10-04 22:00:00 14.3 9 Nordeste 18 Norte 0 -- -- 90
2019-10-04 21:00:00 14.9 4 Norte 17 Nordeste 0 -- -- 87
2019-10-04 20:00:00 15.5 5 Norte 17 Nordeste 0 -- -- 87
2019-10-04 19:00:00 16.7 6 Nordeste 17 Noroeste 0 -- -- 82
2019-10-04 18:00:00 17.1 6 Norte 21 Norte 0 -- -- 81
2019-10-04 17:00:00 18.1 11 Norte 28 Norte 0 -- -- 78
2019-10-04 16:00:00 21.1 13 Norte 27 Norte 0 -- -- 65
2019-10-04 15:00:00 21.6 9 Norte 21 Noroeste 0 -- -- 62
2019-10-04 14:00:00 21.6 4 Norte 11 Norte 0 -- -- 61
2019-10-04 13:00:00 18.6 2 Sudeste 6 Nordeste 0 -- -- 59
2019-10-04 12:00:00 15.2 2 Este 6 Sur 0 -- -- 70
2019-10-04 11:00:00 10.4 0 Calma 8 Nordeste 0 -- -- 88
2019-10-04 10:00:00 8.2 0 Calma 17 Sudoeste 0 -- -- 88
2019-10-04 09:00:00 6.2 8 Sudoeste 16 Sudoeste 0 -- -- 87
2019-10-04 08:00:00 4.9 6 Sur 12 Sur 0 -- -- 94
2019-10-04 07:00:00 4.4 4 Sur 9 Sudoeste 0 -- -- 97
2019-10-04 06:00:00 4.6 3 Sudoeste 7 Sudoeste 0 -- -- 96
2019-10-04 05:00:00 5.5 0 Calma 8 Sudoeste 0 -- -- 93
2019-10-04 04:00:00 6.9 2 Sur 29 Sudoeste 0 -- -- 90
2019-10-04 03:00:00 7.9 19 Sudoeste 31 Sudoeste 0 -- -- 87
2019-10-04 02:00:00 7.3 8 Sudoeste 18 Sudoeste 0 -- -- 96
2019-10-04 01:00:00 8.4 5 Sur 19 Sudoeste 0 -- -- 95
2019-10-04 00:00:00 9 13 Sudoeste 22 Sudoeste 0 -- -- 94
2019-10-03 23:00:00 9.9 8 Sudoeste 15 Sudoeste 0 -- -- 93
2019-10-03 22:00:00 10.6 7 Sudoeste 12 Sudoeste 0 -- -- 95
2019-10-03 21:00:00 11 0 Calma 10 Sudoeste 0 -- -- 94
2019-10-03 20:00:00 12.6 0 Calma 5 Oeste 0 -- -- 91
2019-10-03 19:00:00 14.3 2 Sudoeste 17 Norte 0 -- -- 82
2019-10-03 18:00:00 16.9 4 Norte 23 Norte 0 -- -- 67
2019-10-03 17:00:00 18.8 6 Norte 18 Nordeste 0 -- -- 62
2019-10-03 16:00:00 18.7 8 Norte 22 Norte 0 -- -- 60
2019-10-03 15:00:00 18.6 9 Norte 19 Norte 0 -- -- 53
2019-10-03 14:00:00 18.1 3 Nordeste 6 Nordeste 0.2 -- -- 53
2019-10-03 13:00:00 16.2 3 Nordeste 7 Este 0 -- -- 60
2019-10-03 12:00:00 13.2 0 Calma 6 Este 0 -- -- 77
2019-10-03 11:00:00 9.6 3 Este 10 Sudoeste 0 -- -- 87
2019-10-03 10:00:00 7.9 8 Sudoeste 19 Sudoeste 0 -- -- 91
2019-10-03 09:00:00 6.9 14 Sudoeste 18 Sudoeste 0 -- -- 95
2019-10-03 08:00:00 6.9 13 Sudoeste 17 Sudoeste 0 -- -- 96
2019-10-03 07:00:00 7.7 11 Sudoeste 17 Sudoeste 0 -- -- 95
2019-10-03 06:00:00 8.9 10 Sudoeste 19 Sudoeste 0 -- -- 92
2019-10-03 05:00:00 10.1 9 Sudoeste 16 Sudoeste 0 -- -- 95
2019-10-03 04:00:00 10.7 0 Calma 4 Nordeste 0 -- -- 99
2019-10-03 03:00:00 10.7 2 Sudoeste 4 Sudoeste 0 -- -- 98
2019-10-03 02:00:00 10.8 0 Calma 3 Sur 0 -- -- 98
2019-10-03 01:00:00 11.1 0 Calma 4 Sur 0 -- -- 97
2019-10-03 00:00:00 11.4 0 Calma 10 Nordeste 0 -- -- 96
2019-10-02 23:00:00 11.3 3 Este 5 Este 0 -- -- 99
2019-10-02 22:00:00 11.2 2 Nordeste 4 Nordeste 0 -- -- 98
2019-10-02 21:00:00 11.6 0 Calma 3 Este 0 -- -- 96
2019-10-02 20:00:00 12.5 0 Calma 3 Sudeste 0 -- -- 96
2019-10-02 19:00:00 13.2 0 Calma 8 Nordeste 0 -- -- 92
2019-10-02 18:00:00 14 5 Norte 11 Nordeste 0 -- -- 86
2019-10-02 17:00:00 14.4 7 Nordeste 19 Nordeste 0 -- -- 82
2019-10-02 16:00:00 13.7 5 Norte 29 Nordeste 0 -- -- 88
2019-10-02 15:00:00 14.1 6 Norte 18 Norte 0 -- -- 87
2019-10-02 14:00:00 15.3 8 Nordeste 20 Norte 0 -- -- 82
2019-10-02 13:00:00 12.7 4 Norte 15 Este 0.2 -- -- 94
2019-10-02 12:00:00 12.2 0 Calma 4 Nordeste 1.2 -- -- 97
2019-10-02 11:00:00 11.9 3 Norte 6 Norte 0.8 -- -- 97
2019-10-02 10:00:00 11.6 0 Calma 8 Nordeste 0.4 -- -- 98
2019-10-02 09:00:00 11.2 4 Nordeste 7 Este 0.4 -- -- 98
2019-10-02 08:00:00 11.1 0 Calma 6 Nordeste 0.2 -- -- 98
2019-10-02 07:00:00 11.4 2 Norte 6 Norte 0.2 -- -- 99
2019-10-02 06:00:00 11.3 0 Calma 4 Sudoeste 0.2 -- -- 99
2019-10-02 05:00:00 11.3 2 Nordeste 5 Nordeste 0 -- -- 99
2019-10-02 04:00:00 11.4 3 Sudeste 6 Este 0 -- -- 99
2019-10-02 03:00:00 12.1 0 Calma 2 Norte 0 -- -- 98
2019-10-02 02:00:00 12.2 0 Calma 6 Sudoeste 0 -- -- 98
2019-10-02 01:00:00 12.7 0 Calma 5 Nordeste 0 -- -- 97
2019-10-02 00:00:00 13.2 3 Sudeste 6 Sur 0 -- -- 95
2019-10-01 23:00:00 13.9 3 Nordeste 13 Nordeste 0.2 -- -- 90
2019-10-01 22:00:00 14.2 4 Norte 10 Norte 0 -- -- 95
2019-10-01 21:00:00 14.5 0 Calma 11 Nordeste 0 -- -- 95
2019-10-01 20:00:00 14.8 4 Nordeste 16 Norte 0 -- -- 93
2019-10-01 19:00:00 15.7 3 Norte 20 Norte 4 -- -- 91
2019-10-01 18:00:00 17.2 6 Norte 18 Norte 0 -- -- 83
2019-10-01 17:00:00 18.5 4 Norte 29 Norte 0 -- -- 77
2019-10-01 16:00:00 19.8 8 Norte 31 Norte 0 -- -- 70
2019-10-01 15:00:00 21.9 12 Norte 31 Norte 0 -- -- 61
2019-10-01 14:00:00 23.8 14 Norte 37 Norte 0 -- -- 50
2019-10-01 13:00:00 22 3 Sudeste 4 Norte 0 -- -- 59
2019-10-01 12:00:00 18.9 0 Calma 4 Sudeste 0 -- -- 69
2019-10-01 11:00:00 12.7 2 Sur 4 Sudeste 0 -- -- 90
2019-10-01 10:00:00 8.7 0 Calma 6 Sur 0 -- -- 95
2019-10-01 09:00:00 8.6 3 Sudoeste 10 Sur 0 -- -- 93
2019-10-01 08:00:00 8.4 6 Sur 14 Sudoeste 0 -- -- 94
2019-10-01 07:00:00 8.6 0 Calma 13 Sudoeste 0 -- -- 93
2019-10-01 06:00:00 8.3 2 Sur 8 Sudoeste 0 -- -- 95
2019-10-01 05:00:00 8.2 3 Sudoeste 6 Sudoeste 0 -- -- 97
2019-10-01 04:00:00 9 2 Sur 7 Sur 0 -- -- 96
2019-10-01 03:00:00 10.3 2 Sur 8 Sudoeste 0 -- -- 94
2019-10-01 02:00:00 11.3 3 Sur 13 Sudoeste 0 -- -- 92
2019-10-01 01:00:00 12.1 7 Sudoeste 18 Sudoeste 0 -- -- 94
2019-10-01 00:00:00 12.8 8 Sur 14 Sudoeste 0 -- -- 94
2019-09-30 23:00:00 13.3 7 Sur 13 Sur 0 -- -- 95
2019-09-30 22:00:00 14.2 6 Sur 12 Sudoeste 0 -- -- 92
2019-09-30 21:00:00 15 6 Sudoeste 11 Sur 0 -- -- 90
2019-09-30 20:00:00 16.1 0 Calma 4 Oeste 0 -- -- 88
2019-09-30 19:00:00 18.2 0 Calma 8 Norte 0 -- -- 82
2019-09-30 18:00:00 22.4 2 Noroeste 20 Norte 0 -- -- 67
2019-09-30 17:00:00 23.5 7 Norte 20 Norte 0 -- -- 60
2019-09-30 16:00:00 23.6 9 Norte 22 Norte 0 -- -- 59
2019-09-30 15:00:00 23.5 8 Norte 17 Norte 0 -- -- 59
2019-09-30 14:00:00 22.3 6 Norte 15 Norte 0 -- -- 60
2019-09-30 13:00:00 20.9 4 Nordeste 10 Nordeste 0 -- -- 62
2019-09-30 12:00:00 17.3 3 Este 5 Nordeste 0 -- -- 75
2019-09-30 11:00:00 11.7 2 Sudeste 3 Sur 0 -- -- 99
2019-09-30 10:00:00 8.4 2 Sur 4 Sudoeste 0 -- -- 97
2019-09-30 09:00:00 8.9 2 Norte 12 Sudoeste 0 -- -- 95
2019-09-30 08:00:00 8.5 4 Sur 12 Sur 0 -- -- 98
2019-09-30 07:00:00 8.2 2 Sudoeste 6 Sudoeste 0 -- -- 98
2019-09-30 06:00:00 8.4 3 Sudoeste 5 Sudoeste 0 -- -- 97
2019-09-30 05:00:00 9.6 0 Calma 10 Sudoeste 0 -- -- 94
2019-09-30 04:00:00 10.3 6 Sur 12 Sudoeste 0 -- -- 94
2019-09-30 03:00:00 10 0 Calma 6 Sudoeste 0 -- -- 95
2019-09-30 02:00:00 10.4 2 Sudoeste 8 Sur 0 -- -- 94
2019-09-30 01:00:00 11.2 3 Sudoeste 10 Sudoeste 0 -- -- 92
2019-09-30 00:00:00 11.6 4 Sudoeste 8 Sudoeste 0 -- -- 90
2019-09-29 23:00:00 12.7 2 Sudoeste 9 Sudoeste 0 -- -- 87
2019-09-29 22:00:00 13.2 4 Sudoeste 9 Sudoeste 0 -- -- 86
2019-09-29 21:00:00 13.9 3 Sudoeste 6 Sudoeste 0 -- -- 82
2019-09-29 20:00:00 15.4 0 Calma 6 Oeste 0 -- -- 76
2019-09-29 19:00:00 18.4 0 Calma 6 Sudoeste 0 -- -- 68
2019-09-29 18:00:00 24.4 3 Nordeste 17 Norte 0 -- -- 41
2019-09-29 17:00:00 26.9 6 Norte 23 Norte 0 -- -- 30
2019-09-29 16:00:00 27.1 9 Norte 23 Norte 0 -- -- 31
2019-09-29 15:00:00 27.1 9 Norte 19 Nordeste 0 -- -- 31
2019-09-29 14:00:00 25.9 2 Sudeste 5 Nordeste 0 -- -- 37
2019-09-29 13:00:00 22.1 2 Sudeste 4 Sur 0 -- -- 56
2019-09-29 12:00:00 18.4 2 Sudeste 4 Sur 0 -- -- 60
2019-09-29 11:00:00 13.1 0 Calma 8 Sudoeste 0 -- -- 82
2019-09-29 10:00:00 8.7 0 Calma 8 Sur 0 -- -- 93
2019-09-29 09:00:00 9.1 0 Calma 13 Sur 0 -- -- 89
2019-09-29 08:00:00 8.3 9 Sur 13 Sudoeste 0 -- -- 92
2019-09-29 07:00:00 8.2 3 Sudoeste 10 Sur 0 -- -- 92
2019-09-29 06:00:00 9.1 7 Sur 12 Sur 0 -- -- 92
2019-09-29 05:00:00 8.4 0 Calma 5 Sudoeste 0 -- -- 96
2019-09-29 04:00:00 9.7 3 Norte 13 Sur 0 -- -- 94
2019-09-29 03:00:00 8.8 2 Norte 6 Sudoeste 0 -- -- 99
2019-09-29 02:00:00 9 0 Calma 5 Sur 0 -- -- 98
2019-09-29 01:00:00 9.8 2 Sudoeste 5 Sudoeste 0 -- -- 98
2019-09-29 00:00:00 10.3 0 Calma 6 Oeste 0 -- -- 96
2019-09-28 23:00:00 11.4 0 Calma 9 Sudoeste 0 -- -- 96
2019-09-28 22:00:00 12.2 2 Sudoeste 10 Sur 0 -- -- 95
2019-09-28 21:00:00 13.1 6 Sur 12 Sudoeste 0 -- -- 94
2019-09-28 20:00:00 14.4 0 Calma 4 Sudoeste 0 -- -- 89
2019-09-28 19:00:00 16.5 0 Calma 10 Norte 0 -- -- 83
2019-09-28 18:00:00 18.7 4 Norte 19 Norte 0 -- -- 72
2019-09-28 17:00:00 19.9 8 Norte 22 Norte 0 -- -- 69
2019-09-28 16:00:00 20.2 10 Norte 25 Nordeste 0 -- -- 68
2019-09-28 15:00:00 20.5 10 Norte 28 Norte 0 -- -- 67
2019-09-28 14:00:00 20.6 8 Norte 18 Norte 0 -- -- 66
2019-09-28 13:00:00 19.5 7 Norte 15 Norte 0 -- -- 66
2019-09-28 12:00:00 18.7 3 Nordeste 6 Norte 0 -- -- 72
2019-09-28 11:00:00 15.9 2 Sudeste 4 Norte 0 -- -- 85
2019-09-28 10:00:00 14.1 2 Nordeste 5 Nordeste 0 -- -- 90
2019-09-28 09:00:00 13.4 0 Calma 5 Norte 0 -- -- 94
2019-09-28 08:00:00 13.5 0 Calma 4 Este 0 -- -- 93
2019-09-28 07:00:00 13.8 2 Norte 4 Norte 0 -- -- 94
2019-09-28 06:00:00 14.1 2 Sur 3 Sur 0 -- -- 95
2019-09-28 05:00:00 14.2 0 Calma 4 Oeste 0 -- -- 94
2019-09-28 04:00:00 14.1 0 Calma 0 Calma 0 -- -- 95
2019-09-28 03:00:00 13.9 0 Calma 3 Sudoeste 0 -- -- 96
2019-09-28 02:00:00 13.7 2 Sudoeste 5 Sudoeste 0 -- -- 93
2019-09-28 01:00:00 14.8 0 Calma 3 Sudoeste 0 -- -- 91
2019-09-28 00:00:00 15.3 0 Calma 2 Sur 0 -- -- 91
2019-09-27 23:00:00 15.5 0 Calma 2 Nordeste 0 -- -- 89
2019-09-27 22:00:00 15.7 0 Calma 2 Sur 0 -- -- 87
2019-09-27 21:00:00 16.1 2 Sur 4 Este 0 -- -- 84
2019-09-27 20:00:00 17 0 Calma 4 Noroeste 0 -- -- 80
2019-09-27 19:00:00 18 2 Norte 10 Norte 0 -- -- 71
2019-09-27 18:00:00 18.5 3 Norte 21 Norte 0 -- -- 69
2019-09-27 17:00:00 19.1 10 Norte 28 Norte 0 -- -- 68
2019-09-27 16:00:00 20.8 11 Norte 25 Norte 0 -- -- 66
2019-09-27 15:00:00 22.2 11 Norte 25 Norte 0 -- -- 62
2019-09-27 14:00:00 22.2 8 Norte 19 Norte 0 -- -- 57
2019-09-27 13:00:00 21.3 4 Nordeste 10 Este 0 -- -- 60
2019-09-27 12:00:00 18.4 2 Sudeste 5 Sudeste 0 -- -- 75
2019-09-27 11:00:00 13.2 0 Calma 4 Sudeste 0 -- -- 100
2019-09-27 10:00:00 9.7 0 Calma 6 Sudoeste 0 -- -- 99
2019-09-27 09:00:00 9.7 0 Calma 4 Oeste 0 -- -- 98
2019-09-27 08:00:00 10.4 2 Sur 15 Sudoeste 0 -- -- 97
2019-09-27 07:00:00 10.5 5 Sur 13 Sur 0 -- -- 98
2019-09-27 06:00:00 10.3 4 Sudoeste 8 Sudoeste 0 -- -- 98
2019-09-27 05:00:00 10.9 2 Sur 12 Sudoeste 0 -- -- 97
2019-09-27 04:00:00 11.4 5 Sur 13 Sudoeste 0 -- -- 96
2019-09-27 03:00:00 11.7 5 Sudoeste 13 Sudoeste 0 -- -- 97
2019-09-27 02:00:00 11.6 2 Sudoeste 8 Sur 0 -- -- 97
2019-09-27 01:00:00 12.1 5 Sudoeste 7 Sudoeste 0 -- -- 95
2019-09-27 00:00:00 13.1 3 Sur 12 Sudoeste 0 -- -- 95
2019-09-26 23:00:00 14.1 7 Sur 11 Sudoeste 0 -- -- 91
2019-09-26 22:00:00 14.8 4 Sur 9 Sudoeste 0 -- -- 90
2019-09-26 21:00:00 15 0 Calma 3 Oeste 0 -- -- 91
2019-09-26 20:00:00 15.8 0 Calma 4 Sudoeste 0 -- -- 86
2019-09-26 19:00:00 18.3 0 Calma 13 Norte 0 -- -- 78
2019-09-26 18:00:00 21 6 Norte 23 Norte 0 -- -- 64
2019-09-26 17:00:00 22.5 9 Norte 26 Norte 0 -- -- 60
2019-09-26 16:00:00 23 11 Norte 22 Norte 0 -- -- 57
2019-09-26 15:00:00 23.1 8 Norte 20 Norte 0 -- -- 57
2019-09-26 14:00:00 22.2 8 Norte 18 Norte 0 -- -- 57
2019-09-26 13:00:00 21 4 Nordeste 8 Nordeste 0 -- -- 62
2019-09-26 12:00:00 18.9 3 Este 8 Nordeste 0 -- -- 70
2019-09-26 11:00:00 15.8 3 Nordeste 7 Norte 0 -- -- 82
2019-09-26 10:00:00 11.7 2 Sudeste 10 Sudoeste 0 -- -- 95
2019-09-26 09:00:00 11.9 8 Sur 14 Sudoeste 0 -- -- 92
2019-09-26 08:00:00 11.9 12 Sudoeste 21 Sudoeste 0 -- -- 93
2019-09-26 07:00:00 12.9 11 Sudoeste 16 Sudoeste 0 -- -- 91
2019-09-26 06:00:00 12 6 Sudoeste 11 Sudoeste 0 -- -- 95
2019-09-26 05:00:00 12.7 2 Sur 5 Nordeste 0 -- -- 92
2019-09-26 04:00:00 13.3 3 Sur 5 Sudoeste 0 -- -- 93
2019-09-26 03:00:00 13.5 0 Calma 5 Sudoeste 0 -- -- 90
2019-09-26 02:00:00 13.4 3 Sudeste 4 Sur 0 -- -- 91
2019-09-26 01:00:00 13.3 0 Calma 3 Sur 0 -- -- 92
2019-09-26 00:00:00 13.6 0 Calma 4 Oeste 0 -- -- 90
2019-09-25 23:00:00 14 0 Calma 4 Este 0 -- -- 88
2019-09-25 22:00:00 14.5 0 Calma 4 Noroeste 0 -- -- 84
2019-09-25 21:00:00 14.9 0 Calma 7 Nordeste 0 -- -- 82
2019-09-25 20:00:00 15.7 3 Nordeste 9 Norte 0 -- -- 78
2019-09-25 19:00:00 16.6 2 Nordeste 9 Nordeste 0 -- -- 74
2019-09-25 18:00:00 17.3 3 Nordeste 9 Noroeste 0 -- -- 71
2019-09-25 17:00:00 17.7 4 Norte 13 Norte 0 -- -- 67
2019-09-25 16:00:00 17.6 6 Norte 24 Nordeste 0 -- -- 65
2019-09-25 15:00:00 18.2 7 Norte 18 Nordeste 0 -- -- 64
2019-09-25 14:00:00 18.6 6 Norte 14 Norte 0 -- -- 63
2019-09-25 13:00:00 16.5 6 Norte 17 Norte 0 -- -- 70
2019-09-25 12:00:00 15.7 5 Norte 16 Norte 0 -- -- 74
2019-09-25 11:00:00 14.6 2 Noroeste 5 Norte 0 -- -- 80
2019-09-25 10:00:00 13.3 0 Calma 7 Norte 0 -- -- 89
2019-09-25 09:00:00 12.6 0 Calma 9 Nordeste 0 -- -- 89
2019-09-25 08:00:00 12.6 0 Calma 2 Sudoeste 0 -- -- 90
2019-09-25 07:00:00 12.7 0 Calma 9 Nordeste 0 -- -- 87
2019-09-25 06:00:00 13 4 Nordeste 12 Norte 0 -- -- 85
2019-09-25 05:00:00 13.4 0 Calma 6 Norte 0 -- -- 84
2019-09-25 04:00:00 13.6 2 Nordeste 11 Norte 0 -- -- 81
2019-09-25 03:00:00 13.7 3 Norte 15 Norte 0 -- -- 81
2019-09-25 02:00:00 14 4 Norte 13 Norte 0 -- -- 84
2019-09-25 01:00:00 14.6 4 Norte 11 Norte 0 -- -- 85
2019-09-25 00:00:00 15.3 5 Nordeste 13 Nordeste 0 -- -- 84
2019-09-24 23:00:00 16.4 6 Nordeste 15 Nordeste 0 -- -- 84
2019-09-24 22:00:00 16.9 5 Nordeste 12 Nordeste 0 -- -- 86
2019-09-24 21:00:00 18.1 2 Sudeste 11 Nordeste 0 -- -- 77
2019-09-24 20:00:00 19.4 2 Nordeste 15 Norte 0 -- -- 67
2019-09-24 19:00:00 20.5 3 Norte 15 Norte 0 -- -- 64
2019-09-24 18:00:00 22.4 4 Norte 19 Nordeste 0 -- -- 56
2019-09-24 17:00:00 23 4 Norte 22 Noroeste 0 -- -- 54
2019-09-24 16:00:00 24.2 8 Norte 24 Norte 0 -- -- 52
2019-09-24 15:00:00 24.1 10 Norte 21 Nordeste 0 -- -- 50
2019-09-24 14:00:00 24.1 8 Norte 22 Norte 0 -- -- 49
2019-09-24 13:00:00 23.5 7 Norte 19 Nordeste 0 -- -- 50
2019-09-24 12:00:00 19.7 3 Sudeste 7 Este 0 -- -- 71
2019-09-24 11:00:00 15.2 3 Sudeste 6 Sur 0 -- -- 93
2019-09-24 10:00:00 10.4 3 Oeste 8 Norte 0 -- -- 99
2019-09-24 09:00:00 9.7 0 Calma 7 Sudoeste 0 -- -- 99
2019-09-24 08:00:00 9.2 4 Sudoeste 8 Sur 0 -- -- 99
2019-09-24 07:00:00 9.3 2 Sur 5 Oeste 0 -- -- 98
2019-09-24 06:00:00 9.5 2 Norte 7 Norte 0 -- -- 97
2019-09-24 05:00:00 9.7 3 Sudoeste 6 Sudeste 0 -- -- 96
2019-09-24 04:00:00 10.8 5 Sudeste 17 Sudoeste 0 -- -- 92
2019-09-24 03:00:00 10.6 11 Sudoeste 18 Sudoeste 0 -- -- 95
2019-09-24 02:00:00 10.6 2 Sudoeste 7 Sudoeste 0 -- -- 95
2019-09-24 01:00:00 11.2 0 Calma 13 Sudoeste 0 -- -- 93
2019-09-24 00:00:00 11.9 3 Oeste 15 Sudoeste 0 -- -- 90
2019-09-23 23:00:00 12.1 7 Sur 17 Sudoeste 0 -- -- 90
2019-09-23 22:00:00 13.3 7 Sur 22 Sudoeste 0 -- -- 85
2019-09-23 21:00:00 13.2 8 Sudoeste 12 Sudoeste 0 -- -- 89
2019-09-23 20:00:00 14.6 0 Calma 3 Sudoeste 0 -- -- 86
2019-09-23 19:00:00 16.9 2 Sudoeste 5 Oeste 0 -- -- 82
2019-09-23 18:00:00 19.7 0 Calma 6 Norte 0 -- -- 61
2019-09-23 17:00:00 20.7 2 Noroeste 10 Norte 0 -- -- 55
2019-09-23 16:00:00 21.1 3 Nordeste 15 Norte 0 -- -- 52
2019-09-23 15:00:00 20.5 7 Norte 18 Norte 0 -- -- 46
2019-09-23 14:00:00 20.7 4 Nordeste 10 Nordeste 0 -- -- 52
2019-09-23 13:00:00 18.5 3 Este 7 Nordeste 0 -- -- 62
2019-09-23 12:00:00 15.8 3 Este 6 Sudeste 0 -- -- 82
2019-09-23 11:00:00 12.6 2 Este 5 Norte 0 -- -- 94
2019-09-23 10:00:00 9.8 3 Norte 6 Sudoeste 0 -- -- 99
2019-09-23 09:00:00 8.7 2 Sur 8 Sudoeste 0 -- -- 99
2019-09-23 08:00:00 8.2 5 Sudoeste 9 Sudoeste 0 -- -- 99
2019-09-23 07:00:00 8.6 2 Sudoeste 10 Sudoeste 0 -- -- 97
2019-09-23 06:00:00 9.7 3 Sudoeste 12 Sudoeste 0 -- -- 96
2019-09-23 05:00:00 10.8 6 Sudoeste 12 Sudoeste 0 -- -- 95
2019-09-23 04:00:00 12.2 0 Calma 5 Sudoeste 0 -- -- 97
2019-09-23 03:00:00 12.7 2 Este 4 Nordeste 0 -- -- 98
2019-09-23 02:00:00 12.8 0 Calma 2 Norte 0 -- -- 98
2019-09-23 01:00:00 12.9 0 Calma 2 Nordeste 0 -- -- 98
2019-09-23 00:00:00 13.1 0 Calma 2 Oeste 0.2 -- -- 98
2019-09-22 23:00:00 13.2 0 Calma 4 Nordeste 0.2 -- -- 97
2019-09-22 22:00:00 13.3 0 Calma 4 Sudeste 0 -- -- 97
2019-09-22 21:00:00 13.3 0 Calma 5 Norte 0 -- -- 96
2019-09-22 20:00:00 13.4 3 Norte 13 Nordeste 0 -- -- 93
2019-09-22 19:00:00 13.9 5 Nordeste 17 Norte 0 -- -- 91
2019-09-22 18:00:00 15.1 6 Nordeste 13 Nordeste 0 -- -- 89
2019-09-22 17:00:00 15.4 2 Nordeste 10 Nordeste 0.4 -- -- 89
2019-09-22 16:00:00 14.8 4 Nordeste 15 Norte 1.8 -- -- 91
2019-09-22 15:00:00 16.2 6 Norte 16 Norte 0 -- -- 79
2019-09-22 14:00:00 16.5 7 Norte 26 Norte 0 -- -- 79
2019-09-22 13:00:00 17.9 11 Norte 32 Norte 0 -- -- 76
2019-09-22 12:00:00 19.5 6 Norte 16 Norte 0 -- -- 77
2019-09-22 11:00:00 18.4 3 Norte 10 Este 0 -- -- 77
2019-09-22 10:00:00 17.1 0 Calma 10 Norte 0 -- -- 83
2019-09-22 09:00:00 17.3 4 Nordeste 15 Sudoeste 0 -- -- 77
2019-09-22 08:00:00 18.4 11 Sudoeste 25 Sudoeste 0 -- -- 72
2019-09-22 07:00:00 18.7 11 Sudoeste 21 Sur 0 -- -- 69
2019-09-22 06:00:00 19.4 13 Sudoeste 29 Sudoeste 0 -- -- 64
2019-09-22 05:00:00 16.4 3 Sudoeste 20 Sudoeste 0 -- -- 77
2019-09-22 04:00:00 17.1 4 Norte 14 Oeste 0 -- -- 73
2019-09-22 03:00:00 17 6 Sudoeste 16 Oeste 0 -- -- 68
2019-09-22 02:00:00 18.2 7 Sudoeste 20 Sudoeste 0 -- -- 66
2019-09-22 01:00:00 16.9 9 Sudoeste 18 Oeste 0 -- -- 69
2019-09-22 00:00:00 14.8 0 Calma 11 Sudoeste 0 -- -- 83
2019-09-21 23:00:00 15.2 10 Sudoeste 17 Sudoeste 0 -- -- 76
2019-09-21 22:00:00 16.4 10 Sudoeste 23 Sudoeste 0 -- -- 74
2019-09-21 21:00:00 17.5 10 Sudoeste 22 Sudoeste 0 -- -- 72
2019-09-21 20:00:00 18.5 13 Sudoeste 22 Sudoeste 0 -- -- 72
2019-09-21 19:00:00 20.4 12 Sudoeste 31 Sudoeste 0 -- -- 61
2019-09-21 18:00:00 22.4 10 Sudoeste 26 Sudoeste 0 -- -- 56
2019-09-21 17:00:00 23.6 19 Sudoeste 29 Sudoeste 0 -- -- 51
2019-09-21 16:00:00 25.1 13 Sudoeste 21 Sudoeste 0 -- -- 50
2019-09-21 15:00:00 22.7 6 Sudoeste 14 Sudeste 0 -- -- 68
2019-09-21 14:00:00 21.9 6 Sur 14 Sudoeste 0 -- -- 70
2019-09-21 13:00:00 22.1 5 Sur 11 Sudoeste 0 -- -- 63
2019-09-21 12:00:00 22.8 7 Sudoeste 21 Sudoeste 0 -- -- 62
2019-09-21 11:00:00 20.1 11 Sudoeste 19 Sudoeste 0 -- -- 61
2019-09-21 10:00:00 18.2 6 Sudoeste 11 Sur 0 -- -- 71
2019-09-21 09:00:00 18.5 6 Sur 22 Oeste 0 -- -- 65
2019-09-21 08:00:00 16.1 3 Sur 9 Sudoeste 0 -- -- 75
2019-09-21 07:00:00 15.6 3 Este 12 Sudoeste 0 -- -- 78
2019-09-21 06:00:00 14.3 2 Sur 9 Oeste 0 -- -- 85
2019-09-21 05:00:00 15.3 0 Calma 11 Sudoeste 0 -- -- 79
2019-09-21 04:00:00 16.5 3 Sur 12 Sudoeste 0 -- -- 73
2019-09-21 03:00:00 16.7 6 Sur 21 Sur 0 -- -- 73
2019-09-21 02:00:00 17.8 8 Sur 17 Sur 0 -- -- 68
2019-09-21 01:00:00 16.3 3 Sudeste 10 Sur 0 -- -- 77
2019-09-21 00:00:00 15.3 3 Sur 9 Sudoeste 0 -- -- 87
2019-09-20 23:00:00 14.9 3 Sudoeste 11 Sudoeste 0 -- -- 89
2019-09-20 22:00:00 15.5 4 Sudoeste 18 Sudoeste 0 -- -- 88
2019-09-20 21:00:00 16.5 15 Sudoeste 22 Sudoeste 0 -- -- 86
2019-09-20 20:00:00 18 14 Sudoeste 20 Sudoeste 0 -- -- 83
2019-09-20 19:00:00 19.3 13 Sudoeste 22 Sudoeste 0 -- -- 76
2019-09-20 18:00:00 22.2 14 Sudoeste 22 Sudoeste 0 -- -- 67
2019-09-20 17:00:00 26.1 10 Sudoeste 15 Sudoeste 0.2 -- -- 57
2019-09-20 16:00:00 27.4 8 Sudoeste 23 Sudoeste 0 -- -- 47
2019-09-20 15:00:00 27.8 12 Sudoeste 27 Sudoeste 0 -- -- 42
2019-09-20 14:00:00 26.8 7 Sudoeste 25 Sudoeste 0 -- -- 44
2019-09-20 13:00:00 23.6 3 Sudoeste 8 Oeste 0 -- -- 59
2019-09-20 12:00:00 19 3 Nordeste 5 Nordeste 0 -- -- 85
2019-09-20 11:00:00 17 3 Sudeste 9 Nordeste 0 -- -- 92
2019-09-20 10:00:00 13.5 0 Calma 5 Norte 0 -- -- 100
2019-09-20 09:00:00 11.7 0 Calma 3 Este 0 -- -- 100
2019-09-20 08:00:00 10.5 0 Calma 4 Norte 0 -- -- 100
2019-09-20 07:00:00 10.5 0 Calma 4 Sur 0 -- -- 100
2019-09-20 06:00:00 10.8 0 Calma 9 Sur 0 -- -- 100
2019-09-20 05:00:00 11.2 0 Calma 4 Nordeste 0 -- -- 99
2019-09-20 04:00:00 11.9 2 Sur 11 Sudoeste 0 -- -- 99
2019-09-20 03:00:00 12.3 2 Sudoeste 9 Sudoeste 0 -- -- 98
2019-09-20 02:00:00 13.3 4 Sur 17 Sudoeste 0 -- -- 98
2019-09-20 01:00:00 13.9 6 Sudoeste 15 Sudoeste 0 -- -- 97
2019-09-20 00:00:00 14.7 13 Sudoeste 19 Sudoeste 0 -- -- 98
2019-09-19 23:00:00 15.1 3 Sudoeste 5 Sudoeste 0 -- -- 98
2019-09-19 22:00:00 15.3 3 Sudoeste 12 Sudoeste 0.4 -- -- 98
2019-09-19 21:00:00 15.8 5 Sudoeste 12 Sudoeste 1.4 -- -- 97
2019-09-19 20:00:00 16.7 7 Sudoeste 18 Sudoeste 0.6 -- -- 93
2019-09-19 19:00:00 17.9 5 Sudoeste 15 Sur 0.4 -- -- 92
2019-09-19 18:00:00 19.8 6 Sur 14 Sur 0 -- -- 74
2019-09-19 17:00:00 21.2 2 Sur 11 Norte 0 -- -- 79
2019-09-19 16:00:00 22.4 4 Norte 24 Norte 0 -- -- 63
2019-09-19 15:00:00 23.6 12 Norte 22 Norte 0 -- -- 59
2019-09-19 14:00:00 22.4 6 Norte 14 Norte 0 -- -- 63
2019-09-19 13:00:00 21 4 Este 7 Nordeste 0 -- -- 69
2019-09-19 12:00:00 18.1 2 Este 7 Norte 0 -- -- 78
2019-09-19 11:00:00 14.9 3 Nordeste 5 Este 0 -- -- 95
2019-09-19 10:00:00 11.3 0 Calma 4 Sudoeste 0 -- -- 100
2019-09-19 09:00:00 10.8 0 Calma 6 Sur 0 -- -- 100
2019-09-19 08:00:00 10.7 4 Sur 8 Sudoeste 0 -- -- 100
2019-09-19 07:00:00 10.8 2 Sur 5 Sudoeste 0 -- -- 99
2019-09-19 06:00:00 11.2 2 Sudeste 14 Sudoeste 0 -- -- 98
2019-09-19 05:00:00 11.3 8 Sudoeste 19 Sudoeste 0 -- -- 97
2019-09-19 04:00:00 11.5 6 Sudoeste 14 Sudoeste 0 -- -- 98
2019-09-19 03:00:00 11.8 7 Sudoeste 12 Oeste 0 -- -- 98
2019-09-19 02:00:00 12.5 2 Sur 17 Sudoeste 0 -- -- 97
2019-09-19 01:00:00 12.8 9 Sudoeste 16 Sudoeste 0 -- -- 98
2019-09-19 00:00:00 13 4 Sur 10 Sudoeste 0 -- -- 99
2019-09-18 23:00:00 13.8 3 Sudeste 10 Sur 0 -- -- 98
2019-09-18 22:00:00 14.2 6 Sur 12 Sur 0 -- -- 97
2019-09-18 21:00:00 15 9 Sudoeste 17 Sur 0.2 -- -- 96
2019-09-18 20:00:00 15.3 8 Oeste 23 Sudoeste 0.4 -- -- 96
2019-09-18 19:00:00 15.5 3 Este 39 Sudoeste 2.4 -- -- 94
2019-09-18 18:00:00 20.7 12 Sur 39 Sudoeste 0 -- -- 66
2019-09-18 17:00:00 21.1 6 Nordeste 16 Norte 0 -- -- 82
2019-09-18 16:00:00 22 7 Norte 18 Nordeste 0 -- -- 77
2019-09-18 15:00:00 22.5 2 Sur 8 Nordeste 0 -- -- 74
2019-09-18 14:00:00 22.9 3 Norte 5 Norte 0 -- -- 67
2019-09-18 13:00:00 22 3 Este 5 Este 0 -- -- 76
2019-09-18 12:00:00 19.9 2 Este 4 Nordeste 0 -- -- 84
2019-09-18 11:00:00 16.6 0 Calma 4 Este 0 -- -- 94
2019-09-18 10:00:00 13.4 0 Calma 7 Sudoeste 0 -- -- 99
2019-09-18 09:00:00 13 0 Calma 13 Sudoeste 0 -- -- 98
2019-09-18 08:00:00 12.8 4 Sudoeste 18 Sudoeste 0 -- -- 98
2019-09-18 07:00:00 13.4 8 Sudoeste 13 Sudoeste 0 -- -- 98
2019-09-18 06:00:00 14 9 Sudoeste 17 Sudoeste 0 -- -- 97
2019-09-18 05:00:00 14.6 8 Sudoeste 21 Sudoeste 0 -- -- 96
2019-09-18 04:00:00 15.4 10 Sudoeste 16 Sur 0 -- -- 97
2019-09-18 03:00:00 16.2 3 Nordeste 10 Sudoeste 0.6 -- -- 98
2019-09-18 02:00:00 16.7 9 Sudoeste 22 Sudoeste 0.8 -- -- 96
2019-09-18 01:00:00 16.4 9 Sudoeste 14 Sudoeste 0 -- -- 97
2019-09-18 00:00:00 16.7 5 Sudoeste 18 Sudoeste 0 -- -- 96
2019-09-17 23:00:00 16.9 5 Sudoeste 19 Sudoeste 0 -- -- 96
2019-09-17 22:00:00 17.1 8 Sudoeste 20 Sudoeste 0 -- -- 95
2019-09-17 21:00:00 17.4 9 Sudoeste 25 Sudoeste 1.6 -- -- 95